Time;durP1;ratioP1;P1;durP2;ratioP2;P2;SDS_P1;SDS_P2;PMS_P1;PMS_P2;Temp;Humidity;BMP_temperature;BMP_pressure;BME280_temperature;BME280_humidity;BME280_pressure;Samples;Min_cycle;Max_cycle;Signal;HPM_P1;HPM_P2
2023/11/16 00:02:49;;;;;;;43.25;18.65;;;;;;;;;;5090978;28;20047;-73
2023/11/16 00:05:53;;;;;;;45.13;18.75;;;;;;;;;;5091528;28;20047;-73
2023/11/16 00:08:59;;;;;;;33.88;18.70;;;;;;;;;;5082090;28;20193;-73
2023/11/16 00:12:03;;;;;;;42.10;17.15;;;;;;;;;;5094325;28;20051;-73
2023/11/16 00:15:08;;;;;;;39.20;18.58;;;;;;;;;;5094441;28;20098;-73
2023/11/16 00:18:13;;;;;;;38.95;20.17;;;;;;;;;;5094376;28;20142;-74
2023/11/16 00:21:17;;;;;;;44.95;20.90;;;;;;;;;;5094199;28;20502;-74
2023/11/16 00:24:24;;;;;;;51.03;22.10;;;;;;;;;;5094081;28;20040;-73
2023/11/16 00:27:29;;;;;;;37.72;20.05;;;;;;;;;;5094517;28;20510;-74
2023/11/16 00:30:33;;;;;;;47.58;21.65;;;;;;;;;;5094279;28;20035;-73
2023/11/16 00:33:38;;;;;;;42.25;19.92;;;;;;;;;;5093965;28;20075;-76
2023/11/16 00:36:43;;;;;;;37.03;18.88;;;;;;;;;;5094133;28;20043;-74
2023/11/16 00:39:47;;;;;;;35.38;18.00;;;;;;;;;;5093887;28;20544;-74
2023/11/16 00:42:51;;;;;;;40.92;18.83;;;;;;;;;;5094100;28;20047;-74
2023/11/16 00:45:55;;;;;;;41.78;16.73;;;;;;;;;;5094127;28;20499;-74
2023/11/16 00:49:01;;;;;;;29.73;15.55;;;;;;;;;;5093728;28;20395;-74
2023/11/16 00:52:06;;;;;;;29.33;15.38;;;;;;;;;;5093508;28;20059;-74
2023/11/16 00:55:10;;;;;;;32.50;15.40;;;;;;;;;;5093619;28;20050;-74
2023/11/16 00:58:16;;;;;;;29.10;15.73;;;;;;;;;;5093884;28;20043;-75
2023/11/16 01:01:22;;;;;;;32.95;14.48;;;;;;;;;;5093562;28;20051;-74
2023/11/16 01:04:26;;;;;;;30.48;15.02;;;;;;;;;;5093670;28;20043;-75
2023/11/16 01:07:30;;;;;;;30.00;16.00;;;;;;;;;;5080764;28;20063;-75
2023/11/16 01:10:37;;;;;;;34.05;15.93;;;;;;;;;;5081067;28;20043;-75
2023/11/16 01:13:42;;;;;;;38.20;17.40;;;;;;;;;;5093369;28;20047;-75
2023/11/16 01:16:46;;;;;;;38.55;15.77;;;;;;;;;;5093189;28;20522;-73
2023/11/16 01:19:51;;;;;;;31.17;16.48;;;;;;;;;;5093229;28;20047;-73
2023/11/16 01:23:10;;;;;;;37.05;15.93;;;;;;;;;;5093079;28;20067;-73
2023/11/16 01:26:15;;;;;;;43.00;16.42;;;;;;;;;;5093268;28;20051;-73
2023/11/16 01:29:20;;;;;;;38.85;16.10;;;;;;;;;;5093345;28;20044;-73
2023/11/16 01:32:25;;;;;;;33.47;15.60;;;;;;;;;;5093249;28;20059;-73
2023/11/16 01:35:29;;;;;;;32.03;15.73;;;;;;;;;;5093035;28;20043;-73
2023/11/16 01:38:36;;;;;;;25.13;14.75;;;;;;;;;;5069081;28;20498;-73
2023/11/16 01:41:41;;;;;;;30.88;14.30;;;;;;;;;;5080162;28;20051;-73
2023/11/16 01:44:45;;;;;;;27.20;13.63;;;;;;;;;;5092667;28;20041;-73
2023/11/16 01:47:50;;;;;;;31.77;16.38;;;;;;;;;;5080337;28;20043;-73
2023/11/16 01:50:55;;;;;;;31.02;15.52;;;;;;;;;;5092496;28;20062;-73
2023/11/16 01:54:02;;;;;;;31.17;15.52;;;;;;;;;;5080088;28;20075;-73
2023/11/16 01:57:06;;;;;;;25.25;14.57;;;;;;;;;;5080074;28;20043;-73
2023/11/16 02:00:14;;;;;;;26.50;13.48;;;;;;;;;;5079994;28;20047;-73
2023/11/16 02:03:20;;;;;;;31.98;13.90;;;;;;;;;;5079531;28;20195;-73
2023/11/16 02:06:25;;;;;;;25.13;14.88;;;;;;;;;;5092020;28;20055;-73
2023/11/16 02:09:30;;;;;;;28.25;14.98;;;;;;;;;;5080138;28;20589;-73
2023/11/16 02:12:34;;;;;;;31.00;13.85;;;;;;;;;;5092165;28;20387;-73
2023/11/16 02:15:39;;;;;;;32.60;13.90;;;;;;;;;;5092081;28;20498;-73
2023/11/16 02:18:47;;;;;;;29.58;13.02;;;;;;;;;;5092130;28;20491;-73
2023/11/16 02:21:53;;;;;;;32.03;12.98;;;;;;;;;;5092014;28;20047;-74
2023/11/16 02:24:57;;;;;;;27.80;13.38;;;;;;;;;;5079605;28;20043;-74
2023/11/16 02:28:03;;;;;;;34.35;13.23;;;;;;;;;;5091413;28;20043;-73
2023/11/16 02:31:07;;;;;;;25.35;13.63;;;;;;;;;;5079426;28;20031;-74
2023/11/16 02:34:12;;;;;;;25.90;13.05;;;;;;;;;;5091710;28;20055;-73
2023/11/16 02:37:16;;;;;;;23.65;13.40;;;;;;;;;;5068241;28;20043;-73
2023/11/16 02:40:23;;;;;;;23.10;11.73;;;;;;;;;;5079475;28;20051;-73
2023/11/16 02:43:29;;;;;;;20.30;11.68;;;;;;;;;;5091459;28;20046;-73
2023/11/16 02:46:39;;;;;;;20.75;11.70;;;;;;;;;;5079315;28;20054;-73
2023/11/16 02:49:43;;;;;;;22.00;11.98;;;;;;;;;;5091793;28;20396;-73
2023/11/16 02:52:47;;;;;;;24.60;10.85;;;;;;;;;;5091327;28;20055;-74
2023/11/16 02:55:52;;;;;;;23.25;11.65;;;;;;;;;;5091539;28;20058;-74
2023/11/16 02:58:56;;;;;;;23.10;11.77;;;;;;;;;;5091197;28;20396;-73
2023/11/16 03:02:06;;;;;;;24.77;11.25;;;;;;;;;;5091775;28;20054;-73
2023/11/16 03:05:10;;;;;;;21.60;10.40;;;;;;;;;;5091123;28;20043;-74
2023/11/16 03:08:17;;;;;;;26.00;11.50;;;;;;;;;;5091164;28;20055;-73
2023/11/16 03:11:22;;;;;;;21.98;11.05;;;;;;;;;;5091484;28;20039;-74
2023/11/16 03:14:26;;;;;;;19.65;10.40;;;;;;;;;;5078661;28;20070;-73
2023/11/16 03:17:32;;;;;;;29.90;10.90;;;;;;;;;;5091317;28;20043;-74
2023/11/16 03:20:36;;;;;;;19.45;10.10;;;;;;;;;;5091358;28;20127;-74
2023/11/16 03:23:40;;;;;;;22.17;9.23;;;;;;;;;;5091097;28;20047;-74
2023/11/16 03:26:44;;;;;;;15.98;8.57;;;;;;;;;;5091018;28;20036;-74
2023/11/16 03:29:49;;;;;;;16.67;9.15;;;;;;;;;;5078587;28;20036;-74
2023/11/16 03:32:53;;;;;;;16.38;9.25;;;;;;;;;;5090908;28;20044;-74
2023/11/16 03:35:58;;;;;;;15.60;8.90;;;;;;;;;;5078523;28;20468;-74
2023/11/16 03:39:04;;;;;;;16.35;8.60;;;12.60;99.90;;;;;;5078701;28;20510;-74
2023/11/16 03:42:08;;;;;;;17.45;8.93;;;;;;;;;;5082935;28;20042;-73
2023/11/16 03:45:13;;;;;;;30.25;10.32;;;;;;;;;;5095007;28;20045;-73
2023/11/16 03:48:18;;;;;;;19.95;8.48;;;;;;;;;;5095182;28;20522;-74
2023/11/16 03:51:22;;;;;;;17.15;9.13;;;;;;;;;;5094751;28;20032;-74
2023/11/16 03:54:27;;;;;;;21.17;9.27;;;;;;;;;;5094607;28;20048;-73
2023/11/16 03:57:31;;;;;;;18.98;9.10;;;;;;;;;;5095014;28;20040;-73
2023/11/16 04:00:35;;;;;;;23.15;9.55;;;;;;;;;;5082601;28;20048;-73
2023/11/16 04:03:40;;;;;;;22.98;9.30;;;;;;;;;;5082400;28;20036;-73
2023/11/16 04:06:44;;;;;;;19.25;8.95;;;;;;;;;;5094735;28;20048;-74
2023/11/16 04:09:48;;;;;;;18.85;9.57;;;;;;;;;;5094716;28;20044;-73
2023/11/16 04:12:53;;;;;;;20.25;9.55;;;;;;;;;;5081804;28;20067;-73
2023/11/16 04:15:57;;;;;;;14.35;8.93;;;;;;;;;;5094618;28;20508;-73
2023/11/16 04:19:02;;;;;;;18.58;10.05;;;;;;;;;;5082153;28;20400;-73
2023/11/16 04:22:07;;;;;;;18.25;9.32;;;;;;;;;;5094593;28;20047;-73
2023/11/16 04:25:27;;;;;;;18.58;9.25;;;13.70;99.90;;;;;;5081654;28;20032;-73
2023/11/16 04:28:33;;;;;;;16.63;8.98;;;;;;;;;;5081856;28;20400;-73
2023/11/16 04:31:38;;;;;;;15.90;9.52;;;;;;;;;;5093915;28;20039;-73
2023/11/16 04:34:42;;;;;;;18.98;9.68;;;;;;;;;;5094269;28;20044;-73
2023/11/16 04:37:46;;;;;;;19.38;10.45;;;;;;;;;;5094318;28;20036;-72
2023/11/16 04:40:51;;;;;;;25.83;10.15;;;;;;;;;;5093861;28;20422;-74
2023/11/16 04:43:55;;;;;;;22.33;9.93;;;;;;;;;;5093792;28;20066;-74
2023/11/16 04:47:00;;;;;;;19.75;10.50;;;;;;;;;;5093877;28;20040;-74
2023/11/16 04:50:08;;;;;;;19.33;9.60;;;;;;;;;;5093753;28;20047;-74
2023/11/16 04:53:13;;;;;;;17.90;9.50;;;;;;;;;;5092900;28;20055;-74
2023/11/16 04:56:17;;;;;;;18.33;9.85;;;;;;;;;;5093766;28;20047;-72
2023/11/16 04:59:21;;;;;;;17.33;10.10;;;;;;;;;;5093608;28;20044;-74
2023/11/16 05:02:25;;;;;;;20.77;10.23;;;;;;;;;;5093744;28;20384;-74
2023/11/16 05:05:30;;;;;;;16.33;9.95;;;;;;;;;;5093818;28;20051;-74
2023/11/16 05:08:34;;;;;;;19.40;10.23;;;;;;;;;;5093741;28;20045;-74
2023/11/16 05:11:38;;;;;;;18.88;9.52;;;;;;;;;;5093593;28;20051;-74
2023/11/16 05:14:42;;;;;;;17.30;9.13;;;;;;;;;;5093369;28;20044;-74
2023/11/16 05:17:47;;;;;;;22.00;10.70;;;;;;;;;;5093408;28;20048;-74
2023/11/16 05:20:53;;;;;;;21.23;11.18;;;;;;;;;;5093308;28;20486;-74
2023/11/16 05:23:57;;;;;;;15.32;9.57;;;;;;;;;;5093441;28;20499;-74
2023/11/16 05:27:02;;;;;;;20.02;9.02;;;;;;;;;;5093018;28;20049;-74
2023/11/16 05:30:07;;;;;;;24.75;9.70;;;13.40;99.90;;;;;;5093128;28;20032;-74
2023/11/16 05:33:11;;;;;;;19.75;10.07;;;;;;;;;;5092578;28;20071;-74
2023/11/16 05:36:17;;;;;;;18.48;9.30;;;;;;;;;;5092787;28;20499;-74
2023/11/16 05:39:22;;;;;;;18.75;10.15;;;;;;;;;;5093064;28;20040;-74
2023/11/16 05:42:26;;;;;;;16.27;9.07;;;;;;;;;;5092908;28;20047;-74
2023/11/16 05:45:31;;;;;;;20.88;9.73;;;;;;;;;;5092722;28;20036;-74
2023/11/16 05:48:35;;;;;;;32.53;10.40;;;;;;;;;;5080234;28;20048;-74
2023/11/16 05:51:39;;;;;;;13.02;8.75;;;;;;;;;;5092546;28;20039;-74
2023/11/16 05:54:45;;;;;;;19.00;9.13;;;12.20;99.90;;;;;;5092722;28;20047;-74
2023/11/16 05:57:50;;;;;;;17.05;8.68;;;;;;;;;;5092674;28;20050;-74
2023/11/16 06:00:55;;;;;;;22.75;9.05;;;;;;;;;;5092702;28;20032;-73
2023/11/16 06:03:59;;;;;;;31.20;10.48;;;;;;;;;;5092431;28;20057;-73
2023/11/16 06:07:05;;;;;;;22.02;9.18;;;;;;;;;;5092059;28;20055;-73
2023/11/16 06:10:16;;;;;;;21.35;10.35;;;;;;;;;;5092261;28;20036;-73
2023/11/16 06:13:22;;;;;;;;;;;13.10;99.90;;;;;;5079883;28;20047;-74
2023/11/16 06:16:26;;;;;;;19.92;11.35;;;12.50;99.90;;;;;;5092574;28;19927;-73
2023/11/16 06:19:31;;;;;;;20.73;11.35;;;;;;;;;;5092419;28;20392;-73
2023/11/16 06:22:35;;;;;;;19.55;11.23;;;;;;;;;;5092126;28;20388;-73
2023/11/16 06:25:40;;;;;;;27.48;10.73;;;;;;;;;;5091927;28;20067;-73
2023/11/16 06:28:44;;;;;;;22.13;10.27;;;;;;;;;;5091869;28;20043;-73
2023/11/16 06:31:48;;;;;;;27.45;10.45;;;;;;;;;;5091814;28;20046;-73
2023/11/16 06:34:53;;;;;;;35.72;11.00;;;;;;;;;;5092000;28;20085;-74
2023/11/16 06:37:58;;;;;;;48.50;16.27;;;;;;;;;;5091692;28;20035;-73
2023/11/16 06:41:03;;;;;;;29.95;11.88;;;;;;;;;;5091413;28;20146;-74
2023/11/16 06:44:08;;;;;;;21.52;9.82;;;;;;;;;;5091218;28;20043;-74
2023/11/16 06:47:12;;;;;;;25.83;8.68;;;;;;;;;;5091557;28;20061;-74
2023/11/16 06:50:17;;;;;;;20.80;8.43;;;13.40;99.90;;;;;;5091737;28;20040;-74
2023/11/16 06:53:22;;;;;;;23.77;9.82;;;12.00;99.90;;;;;;5091351;28;20084;-74
2023/11/16 06:56:27;;;;;;;23.95;8.98;;;;;;;;;;5091228;28;20043;-74
2023/11/16 06:59:31;;;;;;;16.73;9.07;;;;;;;;;;5091255;28;20032;-74
2023/11/16 07:02:35;;;;;;;42.75;11.40;;;;;;;;;;5091111;28;20431;-78
2023/11/16 07:05:41;;;;;;;17.95;8.05;;;;;;;;;;5091374;28;20047;-71
2023/11/16 07:08:46;;;;;;;12.45;7.90;;;;;;;;;;5091322;28;20409;-72
2023/11/16 07:11:53;;;;;;;25.85;8.70;;;;;;;;;;5091392;28;20031;-71
2023/11/16 07:14:57;;;;;;;20.40;9.13;;;;;;;;;;5078480;28;20052;-72
2023/11/16 07:18:04;;;;;;;30.00;8.45;;;;;;;;;;5091202;28;20035;-70
2023/11/16 07:21:09;;;;;;;18.98;8.60;;;;;;;;;;5091389;28;20048;-72
2023/11/16 07:24:13;;;;;;;32.33;9.38;;;;;;;;;;5091290;28;20039;-72
2023/11/16 07:27:18;;;;;;;17.63;10.20;;;;;;;;;;5091240;28;20048;-72
2023/11/16 07:30:24;;;;;;;18.65;9.77;;;;;;;;;;5091078;28;20506;-69
2023/11/16 07:33:28;;;;;;;27.90;13.93;;;;;;;;;;5090801;28;20259;-69
2023/11/16 07:36:33;;;;;;;23.75;10.55;;;;;;;;;;5091131;28;20062;-71
2023/11/16 07:39:37;;;;;;;20.95;11.00;;;;;;;;;;5090827;28;20400;-70
2023/11/16 07:42:41;;;;;;;25.50;10.63;;;;;;;;;;5090715;28;20047;-72
2023/11/16 07:45:45;;;;;;;17.70;10.85;;;;;;;;;;5091059;28;20046;-71
2023/11/16 07:48:50;;;;;;;18.83;11.32;;;;;;;;;;5090868;28;20058;-72
2023/11/16 07:51:54;;;;;;;23.95;11.93;;;;;;;;;;5090581;28;20055;-69
2023/11/16 07:54:59;;;;;;;21.75;11.48;;;;;;;;;;5091030;28;20036;-71
2023/11/16 07:58:05;;;;;;;21.27;11.20;;;;;;;;;;5090864;28;20515;-69
2023/11/16 08:01:12;;;;;;;26.48;11.88;;;;;;;;;;5090723;28;20115;-69
2023/11/16 08:04:18;;;;;;;25.60;11.57;;;;;;;;;;5090093;28;20039;-69
2023/11/16 08:07:24;;;;;;;20.65;10.73;;;;;;;;;;5089743;28;20502;-69
2023/11/16 08:10:28;;;;;;;17.65;9.98;;;;;;;;;;5090580;28;20047;-69
2023/11/16 08:13:34;;;;;;;22.15;10.48;;;;;;;;;;5077977;28;20051;-69
2023/11/16 08:16:41;;;;;;;27.90;11.45;;;;;;;;;;5090780;28;20047;-69
2023/11/16 08:19:46;;;;;;;22.05;10.60;;;;;;;;;;5090691;28;20043;-69
2023/11/16 08:22:51;;;;;;;22.05;11.25;;;17.90;99.90;;;;;;5090406;28;20039;-69
2023/11/16 08:25:57;;;;;;;17.85;10.63;;;18.10;99.90;;;;;;5090355;28;20400;-70
2023/11/16 08:29:01;;;;;;;22.63;12.25;;;;;;;;;;5081763;28;20043;-70
2023/11/16 08:32:06;;;;;;;17.20;10.57;;;;;;;;;;5093479;28;20047;-69
2023/11/16 08:35:10;;;;;;;24.05;11.73;;;;;;;;;;5093828;28;20510;-69
2023/11/16 08:38:15;;;;;;;17.35;10.15;;;;;;;;;;5081538;28;20043;-69
2023/11/16 08:41:22;;;;;;;18.77;11.55;;;;;;;;;;5093994;28;20055;-69
2023/11/16 08:44:26;;;;;;;23.40;11.68;;;;;;;;;;5093760;28;20502;-68
2023/11/16 08:47:31;;;;;;;19.45;10.95;;;;;;;;;;5093697;28;20043;-68
2023/11/16 08:50:37;;;;;;;21.05;11.68;;;;;;;;;;5093784;28;20039;-69
2023/11/16 08:53:43;;;;;;;18.15;11.23;;;;;;;;;;5093392;28;20055;-69
2023/11/16 08:56:48;;;;;;;24.48;11.38;;;;;;;;;;5081337;28;20043;-69
2023/11/16 09:00:02;;;;;;;21.05;11.75;;;;;;;;;;5093625;28;20047;-69
2023/11/16 09:03:12;;;;;;;17.50;11.10;;;;;;;;;;5093056;28;20043;-69
2023/11/16 09:06:21;;;;;;;24.75;12.65;;;19.20;99.80;;;;;;5093350;28;20067;-68
2023/11/16 09:09:35;;;;;;;17.50;10.80;;;;;;;;;;5093506;28;20047;-69
2023/11/16 09:12:45;;;;;;;22.42;13.63;;;19.40;99.20;;;;;;5093303;28;20043;-69
2023/11/16 09:15:50;;;;;;;17.17;9.95;;;;;;;;;;5093353;28;20047;-69
2023/11/16 09:18:54;;;;;;;20.85;10.88;;;;;;;;;;5093461;28;20036;-69
2023/11/16 09:22:02;;;;;;;15.43;10.18;;;;;;;;;;5093056;28;20483;-69
2023/11/16 09:25:08;;;;;;;16.25;9.13;;;;;;;;;;5093260;28;20039;-69
2023/11/16 09:28:13;;;;;;;19.77;9.57;;;;;;;;;;5093091;28;20043;-69
2023/11/16 09:31:18;;;;;;;20.42;9.48;;;;;;;;;;5093171;28;20365;-69
2023/11/16 09:34:22;;;;;;;17.08;8.70;;;;;;;;;;5080278;28;20044;-69
2023/11/16 09:37:28;;;;;;;17.05;8.52;;;;;;;;;;5092448;28;20490;-69
2023/11/16 09:40:32;;;;;;;20.48;9.18;;;;;;;;;;5092804;28;20036;-69
2023/11/16 09:43:39;;;;;;;16.80;7.78;;;20.80;97.00;;;;;;5092911;28;20043;-69
2023/11/16 09:46:47;;;;;;;13.38;7.70;;;20.40;96.90;;;;;;5092880;28;20391;-69
2023/11/16 09:49:55;;;;;;;16.30;7.80;;;;;;;;;;5092638;28;20050;-69
2023/11/16 09:53:00;;;;;;;14.93;7.32;;;20.50;96.70;;;;;;5092293;28;20483;-69
2023/11/16 09:56:05;;;;;;;11.20;6.43;;;20.20;96.60;;;;;;5092707;28;20047;-69
2023/11/16 09:59:25;;;;;;;10.07;6.32;;;;;;;;;;5092648;28;20395;-70
2023/11/16 10:02:32;;;;;;;12.25;6.43;;;20.10;96.70;;;;;;5092511;28;20040;-71
2023/11/16 10:05:37;;;;;;;10.32;6.53;;;;;;;;;;5092099;28;20102;-68
2023/11/16 10:08:41;;;;;;;15.18;6.65;;;;;;;;;;5092434;28;20044;-69
2023/11/16 10:11:45;;;;;;;11.80;6.32;;;;;;;;;;5092175;28;20036;-69
2023/11/16 10:14:52;;;;;;;14.65;6.03;;;20.30;97.10;;;;;;5092094;28;20046;-69
2023/11/16 10:17:57;;;;;;;11.60;6.10;;;;;;;;;;5092024;28;20442;-69
2023/11/16 10:21:05;;;;;;;14.45;6.72;;;;;;;;;;5092146;28;20067;-69
2023/11/16 10:24:09;;;;;;;18.13;6.82;;;;;;;;;;5091787;28;20043;-69
2023/11/16 10:27:13;;;;;;;18.90;7.43;;;22.90;97.60;;;;;;5091995;28;20499;-69
2023/11/16 10:30:18;;;;;;;18.15;7.80;;;;;;;;;;5092037;28;20043;-70
2023/11/16 10:33:23;;;;;;;13.95;6.90;;;20.80;96.50;;;;;;5091546;28;20522;-70
2023/11/16 10:36:32;;;;;;;17.42;7.65;;;;;;;;;;5091577;28;20043;-69
2023/11/16 10:39:37;;;;;;;17.50;8.43;;;;;;;;;;5092000;28;20074;-69
2023/11/16 10:42:42;;;;;;;12.65;7.40;;;21.40;95.40;;;;;;5091691;28;20051;-71
2023/11/16 10:45:47;;;;;;;17.42;7.95;;;21.50;95.40;;;;;;5091953;28;20050;-70
2023/11/16 10:48:51;;;;;;;19.70;8.75;;;;;;;;;;5091139;28;20042;-71
2023/11/16 10:51:58;;;;;;;14.82;8.23;;;21.50;95.10;;;;;;5092028;28;20040;-70
2023/11/16 10:55:07;;;;;;;17.10;8.35;;;21.60;95.00;;;;;;5082171;28;20530;-69
2023/11/16 10:58:12;;;;;;;18.30;7.93;;;;;;;;;;5092981;28;20039;-71
2023/11/16 11:01:18;;;;;;;14.98;6.90;;;21.60;94.90;;;;;;5091693;28;20044;-70
2023/11/16 11:04:22;;;;;;;12.25;7.10;;;21.80;94.80;;;;;;5091581;28;20047;-70
2023/11/16 11:07:27;;;;;;;14.73;6.50;;;;;;;;;;5091138;28;20047;-69
2023/11/16 11:10:33;;;;;;;12.73;5.97;;;19.30;94.30;;;;;;5091477;28;20036;-71
2023/11/16 11:13:43;;;;;;;12.90;6.80;;;21.20;94.90;;;;;;5090824;28;20048;-69
2023/11/16 11:16:51;;;;;;;15.60;7.60;;;21.30;94.60;;;;;;5091244;28;20043;-70
2023/11/16 11:20:00;;;;;;;10.30;6.72;;;20.80;94.40;;;;;;5091324;28;20050;-69
2023/11/16 11:23:18;;;;;;;14.95;6.80;;;21.20;94.20;;;;;;5091043;28;20039;-71
2023/11/16 11:26:36;;;;;;;17.30;5.47;;;21.10;94.70;;;;;;5091333;28;20051;-71
2023/11/16 11:29:40;;;;;;;8.23;3.58;;;;;;;;;;5090944;28;20040;-71
2023/11/16 11:32:47;;;;;;;10.70;4.07;;;20.80;94.30;;;;;;5091009;28;20377;-71
2023/11/16 11:35:52;;;;;;;9.65;4.03;;;;;;;;;;5091086;28;20042;-71
2023/11/16 11:38:58;;;;;;;10.23;3.90;;;;;;;;;;5091070;28;20036;-72
2023/11/16 11:42:04;;;;;;;10.18;3.58;;;20.40;94.60;;;;;;5090962;28;20055;-70
2023/11/16 11:45:09;;;;;;;10.98;3.92;;;19.00;94.70;;;;;;5090979;28;20055;-70
2023/11/16 11:48:13;;;;;;;10.73;3.72;;;20.50;95.30;;;;;;5090738;28;20043;-69
2023/11/16 11:51:20;;;;;;;11.55;3.78;;;20.80;95.60;;;;;;5090764;28;20049;-70
2023/11/16 11:54:39;;;;;;;9.48;3.45;;;22.20;96.20;;;;;;5090727;28;20516;-71
2023/11/16 11:57:43;;;;;;;12.05;4.63;;;21.00;95.90;;;;;;5090950;28;20043;-70
2023/11/16 12:00:49;;;;;;;18.25;5.85;;;20.10;95.70;;;;;;5091932;28;20059;-70
2023/11/16 12:04:00;;;;;;;15.95;6.10;;;20.90;95.80;;;;;;5082213;28;20043;-70
2023/11/16 12:07:11;;;;;;;18.65;6.53;;;20.70;95.80;;;;;;5094370;28;20050;-70
2023/11/16 12:10:15;;;;;;;14.43;5.43;;;20.90;95.90;;;;;;5082253;28;20141;-70
2023/11/16 12:13:19;;;;;;;12.48;5.95;;;20.70;96.10;;;;;;5094398;28;20051;-70
2023/11/16 12:16:23;;;;;;;11.73;5.25;;;21.60;96.40;;;;;;5094659;28;20158;-70
2023/11/16 12:19:28;;;;;;;12.10;6.10;;;;;;;;;;5094424;28;20387;-69
2023/11/16 12:22:32;;;;;;;18.30;5.93;;;20.50;96.20;;;;;;5093817;28;20032;-72
2023/11/16 12:25:39;;;;;;;14.40;5.45;;;20.70;96.40;;;;;;5094113;28;20047;-72
2023/11/16 12:28:43;;;;;;;10.23;4.88;;;19.70;96.30;;;;;;5094371;28;20544;-72
2023/11/16 12:31:48;;;;;;;11.65;4.75;;;20.80;96.60;;;;;;5093873;28;20059;-72
2023/11/16 12:34:53;;;;;;;14.68;4.68;;;22.10;97.20;;;;;;5093953;28;20067;-71
2023/11/16 12:38:04;;;;;;;19.95;5.05;;;20.90;98.00;;;;;;5094199;28;20043;-72
2023/11/16 12:41:11;;;;;;;12.13;4.45;;;20.70;98.80;;;;;;5094075;28;20050;-72
2023/11/16 12:44:18;;;;;;;14.45;4.60;;;20.80;99.30;;;;;;5093607;28;20043;-73
2023/11/16 12:47:24;;;;;;;13.88;4.75;;;20.80;99.80;;;;;;5093884;28;20400;-71
2023/11/16 12:50:32;;;;;;;12.10;3.75;;;20.80;99.90;;;;;;5093984;28;20042;-72
2023/11/16 12:53:40;;;;;;;12.30;3.30;;;21.60;99.90;;;;;;5093472;28;20055;-72
2023/11/16 12:56:48;;;;;;;12.40;3.65;;;20.80;99.90;;;;;;5093876;28;20039;-72
2023/11/16 12:59:55;;;;;;;18.73;4.93;;;21.10;99.90;;;;;;5093909;28;20050;-71
2023/11/16 13:03:00;;;;;;;19.60;4.60;;;20.80;99.90;;;;;;5093632;28;20042;-71
2023/11/16 13:06:06;;;;;;;16.38;3.72;;;20.90;99.90;;;;;;5093355;28;20047;-71
2023/11/16 13:09:10;;;;;;;16.33;4.97;;;20.80;99.90;;;;;;5093383;28;20035;-72
2023/11/16 13:12:17;;;;;;;16.00;3.58;;;19.20;99.90;;;;;;5092845;28;20046;-72
2023/11/16 13:15:22;;;;;;;16.70;4.05;;;;;;;;;;5093554;28;20055;-72
2023/11/16 13:18:26;;;;;;;13.57;3.15;;;21.60;99.90;;;;;;5080946;28;20666;-72
2023/11/16 13:21:33;;;;;;;20.60;4.85;;;19.20;99.90;;;;;;5093433;28;20241;-71
2023/11/16 13:24:39;;;;;;;18.10;4.18;;;20.60;99.90;;;;;;5093004;28;20040;-71
2023/11/16 13:27:45;;;;;;;18.85;4.43;;;21.50;99.90;;;;;;5093145;28;20050;-72
2023/11/16 13:30:53;;;;;;;18.42;4.85;;;20.50;99.90;;;;;;5093173;28;20043;-71
2023/11/16 13:33:57;;;;;;;20.48;4.93;;;;;;;;;;5092891;28;20059;-71
2023/11/16 13:37:06;;;;;;;15.10;4.25;;;20.40;99.90;;;;;;5093064;28;20032;-72
2023/11/16 13:40:13;;;;;;;19.42;4.05;;;21.90;99.90;;;;;;5092704;28;20518;-71
2023/11/16 13:43:17;;;;;;;13.48;3.95;;;20.20;99.90;;;;;;5092841;28;20051;-71
2023/11/16 13:46:22;;;;;;;22.58;4.65;;;21.10;99.90;;;;;;5092594;28;20047;-71
2023/11/16 13:49:38;;;;;;;12.48;3.50;;;20.40;99.90;;;;;;5092760;28;20051;-71
2023/11/16 13:52:49;;;;;;;15.48;4.47;;;20.40;99.90;;;;;;5092284;28;20506;-71
2023/11/16 13:55:53;;;;;;;14.85;3.80;;;20.30;99.90;;;;;;5092406;28;20525;-71
2023/11/16 13:58:59;;;;;;;15.02;4.13;;;18.20;99.90;;;;;;5079944;28;20047;-71
2023/11/16 14:02:07;;;;;;;23.67;4.57;;;;;;;;;;5092268;28;20051;-71
2023/11/16 14:05:12;;;;;;;13.35;4.80;;;20.30;99.90;;;;;;5092235;28;20049;-71
2023/11/16 14:08:18;;;;;;;21.70;4.35;;;;;;;;;;5092293;28;20046;-71
2023/11/16 14:11:25;;;;;;;14.50;3.65;;;;;;;;;;5092580;28;20044;-71
2023/11/16 14:14:29;;;;;;;11.23;3.92;;;20.20;99.90;;;;;;5092193;28;20048;-71
2023/11/16 14:17:33;;;;;;;10.20;3.50;;;20.40;99.90;;;;;;5092295;28;20043;-71
2023/11/16 14:20:45;;;;;;;21.23;5.15;;;;;;;;;;5092083;28;20054;-71
2023/11/16 14:23:49;;;;;;;17.10;5.45;;;;;;;;;;5091624;28;20056;-71
2023/11/16 14:27:03;;;;;;;12.95;3.50;;;;;;;;;;5090606;28;20040;-68
2023/11/16 14:30:07;;;;;;;8.32;2.95;;;20.10;99.90;;;;;;5089944;28;20035;-69
2023/11/16 14:33:19;;;;;;;17.02;3.75;;;;;;;;;;5090409;28;20055;-70
2023/11/16 14:36:23;;;;;;;13.68;3.88;;;;;;;;;;5091701;28;20040;-69
2023/11/16 14:39:28;;;;;;;14.00;4.85;;;;;;;;;;5091942;28;20044;-69
2023/11/16 14:42:33;;;;;;;9.95;3.67;;;;;;;;;;5091735;28;20036;-69
2023/11/16 14:45:55;;;;;;;13.50;4.50;;;;;;;;;;5091516;28;20036;-70
2023/11/16 14:49:02;;;;;;;15.02;5.53;;;;;;;;;;5091723;28;20040;-70
2023/11/16 14:52:10;;;;;;;17.98;5.80;;;;;;;;;;5091585;28;20054;-70
2023/11/16 14:55:14;;;;;;;13.88;5.13;;;;;;;;;;5091282;28;20081;-69
2023/11/16 14:58:22;;;;;;;12.15;4.13;;;;;;;;;;5091581;28;20038;-70
2023/11/16 15:01:29;;;;;;;11.05;4.38;;;;;;;;;;5091600;28;20065;-71
2023/11/16 15:04:32;;;;;;;15.02;4.75;;;;;;;;;;5091187;28;20032;-71
2023/11/16 15:07:37;;;;;;;13.25;4.45;;;19.60;99.90;;;;;;5091071;28;20052;-70
2023/11/16 15:10:51;;;;;;;20.50;5.20;;;;;;;;;;5091517;28;20050;-70
2023/11/16 15:13:55;;;;;;;18.45;4.60;;;;;;;;;;5091232;28;20039;-69
2023/11/16 15:17:08;;;;;;;15.38;4.60;;;;;;;;;;5091183;28;20062;-70
2023/11/16 15:20:15;;;;;;;22.02;4.80;;;;;;;;;;5091152;28;20036;-70
2023/11/16 15:23:22;;;;;;;28.65;5.97;;;;;;;;;;5090698;28;20051;-69
2023/11/16 15:26:30;;;;;;;13.45;4.70;;;21.00;99.90;;;;;;5091169;28;20044;-70
2023/11/16 15:29:36;;;;;;;28.00;7.50;;;;;;;;;;5091156;28;20047;-69
2023/11/16 15:32:40;;;;;;;17.63;7.50;;;;;;;;;;5090935;28;20040;-68
2023/11/16 15:35:47;;;;;;;22.75;7.00;;;19.30;99.90;;;;;;5091893;28;20040;-68
2023/11/16 15:38:52;;;;;;;20.35;5.40;;;;;;;;;;5095374;28;20043;-68
2023/11/16 15:42:00;;;;;;;19.52;5.13;;;;;;;;;;5095204;28;20043;-68
2023/11/16 15:45:08;;;;;;;16.63;4.47;;;19.50;99.90;;;;;;5095045;28;20036;-68
2023/11/16 15:48:12;;;;;;;15.93;5.03;;;;;;;;;;5094840;28;20039;-68
2023/11/16 15:51:16;;;;;;;19.23;5.45;;;;;;;;;;5094740;28;20035;-69
2023/11/16 15:54:21;;;;;;;18.27;6.68;;;;;;;;;;5094628;28;20050;-68
2023/11/16 15:57:29;;;;;;;34.13;6.85;;;;;;;;;;5094863;28;20032;-68
2023/11/16 16:00:42;;;;;;;23.90;6.72;;;;;;;;;;5094612;28;20046;-68
2023/11/16 16:03:52;;;;;;;24.83;6.90;;;19.10;99.90;;;;;;5094788;28;20044;-68
2023/11/16 16:07:00;;;;;;;26.13;7.68;;;;;;;;;;5094619;28;20055;-68
2023/11/16 16:10:05;;;;;;;27.83;7.93;;;;;;;;;;5094895;28;20040;-70
2023/11/16 16:13:13;;;;;;;19.20;8.00;;;;;;;;;;5094442;28;20032;-69
2023/11/16 16:16:20;;;;;;;34.67;9.23;;;18.80;99.90;;;;;;5094353;28;20047;-69
2023/11/16 16:19:31;;;;;;;25.13;9.55;;;;;;;;;;5094435;28;20039;-68
2023/11/16 16:22:35;;;;;;;21.52;8.07;;;;;;;;;;5094110;28;20044;-70
2023/11/16 16:25:45;;;;;;;27.40;8.55;;;;;;;;;;5094503;28;20386;-70
2023/11/16 16:28:53;;;;;;;19.55;7.65;;;;;;;;;;5094335;28;20028;-70
2023/11/16 16:31:57;;;;;;;20.17;7.65;;;;;;;;;;5093929;28;20040;-69
2023/11/16 16:35:02;;;;;;;24.63;8.88;;;;;;;;;;5093918;28;20050;-69
2023/11/16 16:38:06;;;;;;;33.13;9.57;;;;;;;;;;5081473;28;20043;-70
2023/11/16 16:41:10;;;;;;;33.40;10.32;;;;;;;;;;5093504;28;20058;-70
2023/11/16 16:44:15;;;;;;;33.83;11.18;;;;;;;;;;5093867;28;20043;-69
2023/11/16 16:47:24;;;;;;;37.90;11.88;;;;;;;;;;5092501;28;20063;-69
2023/11/16 16:50:31;;;;;;;45.13;17.58;;;;;;;;;;5093390;28;20058;-69
2023/11/16 16:53:35;;;;;;;45.25;16.33;;;;;;;;;;5093616;28;20058;-69
2023/11/16 16:56:44;;;;;;;37.30;14.40;;;;;;;;;;5093756;28;20067;-69
2023/11/16 16:59:49;;;;;;;30.85;15.73;;;;;;;;;;5093441;28;20055;-69
2023/11/16 17:02:53;;;;;;;54.53;22.27;;;;;;;;;;5081080;28;20102;-69
2023/11/16 17:05:58;;;;;;;54.83;21.88;;;;;;;;;;5093428;28;20499;-70
2023/11/16 17:09:02;;;;;;;51.83;18.88;;;;;;;;;;5093602;28;20055;-69
2023/11/16 17:12:07;;;;;;;39.92;14.15;;;;;;;;;;5093524;28;20053;-69
2023/11/16 17:15:11;;;;;;;42.70;13.23;;;;;;;;;;5093165;28;20141;-69
2023/11/16 17:18:16;;;;;;;50.85;17.13;;;;;;;;;;5093468;28;20039;-70
2023/11/16 17:21:26;;;;;;;49.28;15.93;;;;;;;;;;5093122;28;20051;-69
2023/11/16 17:24:30;;;;;;;49.30;19.88;;;;;;;;;;5092987;28;20049;-69
2023/11/16 17:27:36;;;;;;;47.38;14.88;;;;;;;;;;5092734;28;20051;-69
2023/11/16 17:30:41;;;;;;;37.72;10.15;;;;;;;;;;5093098;28;20391;-69
2023/11/16 17:33:45;;;;;;;45.35;11.77;;;;;;;;;;5092706;28;20059;-69